Time;durP1;ratioP1;P1;durP2;ratioP2;P2;SDS_P1;SDS_P2;PMS_P1;PMS_P2;Temp;Humidity;BMP_temperature;BMP_pressure;BME280_temperature;BME280_humidity;BME280_pressure;Samples;Min_cycle;Max_cycle;Signal;HPM_P1;HPM_P2
2022/10/16 00:00:48;;;;;;;1.20;0.55;;;20.40;96.00;;;;;;4983912;28;45474;-73
2022/10/16 00:03:14;;;;;;;1.13;0.68;;;20.40;96.00;;;;;;4980694;28;45363;-73
2022/10/16 00:05:42;;;;;;;1.73;0.60;;;20.40;96.00;;;;;;4980243;28;47945;-73
2022/10/16 00:08:10;;;;;;;1.02;0.50;;;20.40;96.00;;;;;;4986913;28;45396;-74
2022/10/16 00:10:38;;;;;;;0.60;0.40;;;20.40;96.00;;;;;;4987402;28;45367;-74
2022/10/16 00:13:06;;;;;;;0.75;0.50;;;20.50;96.00;;;;;;4990309;28;45386;-74
2022/10/16 00:15:35;;;;;;;0.75;0.45;;;20.50;96.00;;;;;;4995279;28;46307;-74
2022/10/16 00:18:02;;;;;;;0.70;0.45;;;20.50;95.90;;;;;;4991796;28;45640;-73
2022/10/16 00:20:31;;;;;;;0.75;0.50;;;20.50;95.90;;;;;;4989895;28;45323;-74
2022/10/16 00:22:57;;;;;;;0.95;0.40;;;20.50;95.90;;;;;;4987519;28;45299;-74
2022/10/16 00:25:24;;;;;;;0.73;0.50;;;20.50;95.90;;;;;;4982241;28;46269;-74
2022/10/16 00:27:52;;;;;;;0.90;0.60;;;20.50;95.90;;;;;;4981121;28;45495;-74
2022/10/16 00:30:19;;;;;;;0.70;0.47;;;20.50;95.90;;;;;;4984752;28;45390;-73
2022/10/16 00:32:46;;;;;;;0.98;0.50;;;20.40;95.90;;;;;;4985301;28;45458;-73
2022/10/16 00:35:12;;;;;;;0.80;0.45;;;20.50;95.90;;;;;;4984349;28;46869;-73
2022/10/16 00:37:39;;;;;;;0.60;0.50;;;20.50;95.90;;;;;;4980602;28;45308;-74
2022/10/16 00:40:07;;;;;;;0.70;0.43;;;20.40;95.90;;;;;;4977997;28;45303;-74
2022/10/16 00:42:34;;;;;;;0.40;0.40;;;20.40;95.90;;;;;;4973666;28;45446;-74
2022/10/16 00:45:03;;;;;;;0.40;0.30;;;20.40;95.90;;;;;;4982269;28;46865;-74
2022/10/16 00:47:33;;;;;;;0.47;0.32;;;20.40;95.90;;;;;;4976399;28;45784;-73
2022/10/16 00:50:05;;;;;;;0.88;0.57;;;20.40;95.90;;;;;;4984769;28;45276;-74
2022/10/16 00:52:32;;;;;;;0.63;0.40;;;20.40;95.80;;;;;;4984427;28;45256;-73
2022/10/16 00:55:01;;;;;;;0.82;0.40;;;20.40;95.80;;;;;;4983737;28;48278;-74
2022/10/16 00:57:27;;;;;;;0.30;0.30;;;20.40;95.80;;;;;;4983281;28;45309;-73
2022/10/16 00:59:54;;;;;;;0.90;0.40;;;20.40;95.80;;;;;;4978520;28;45428;-74
2022/10/16 01:02:22;;;;;;;0.65;0.47;;;20.40;95.80;;;;;;4983721;28;45355;-74
2022/10/16 01:04:53;;;;;;;0.82;0.40;;;20.40;95.70;;;;;;4982663;28;46802;-73
2022/10/16 01:07:30;;;;;;;0.63;0.40;;;20.40;95.80;;;;;;4982943;28;45360;-74
2022/10/16 01:10:07;;;;;;;0.40;0.40;;;20.50;95.80;;;;;;4984061;28;45383;-74
2022/10/16 01:12:41;;;;;;;0.32;0.30;;;20.50;95.70;;;;;;4982331;28;45522;-74
2022/10/16 01:15:15;;;;;;;0.70;0.40;;;20.40;95.70;;;;;;4982126;28;47288;-74
2022/10/16 01:17:49;;;;;;;0.40;0.30;;;20.40;96.10;;;;;;4981988;28;45881;-74
2022/10/16 01:20:26;;;;;;;0.55;0.45;;;20.50;95.70;;;;;;4985662;28;45282;-73
2022/10/16 01:23:05;;;;;;;0.55;0.40;;;20.40;95.70;;;;;;4968055;28;45416;-74
2022/10/16 01:25:46;;;;;;;0.30;0.30;;;20.40;95.60;;;;;;4978619;28;45411;-74
2022/10/16 01:28:18;;;;;;;1.25;0.40;;;20.40;95.60;;;;;;4974198;28;45517;-74
2022/10/16 01:30:47;;;;;;;0.63;0.40;;;20.40;95.60;;;;;;4985673;28;45209;-74
2022/10/16 01:33:20;;;;;;;0.73;0.30;;;20.40;95.60;;;;;;4983737;28;45200;-74
2022/10/16 01:35:53;;;;;;;0.95;0.45;;;20.40;95.60;;;;;;4983519;28;48243;-73
2022/10/16 01:38:24;;;;;;;0.38;0.38;;;20.40;95.70;;;;;;4984155;28;45568;-74
2022/10/16 01:40:57;;;;;;;0.88;0.40;;;20.40;95.60;;;;;;4984168;28;45279;-74
2022/10/16 01:43:29;;;;;;;0.40;0.40;;;20.40;95.60;;;;;;4983256;28;45392;-73
2022/10/16 01:45:56;;;;;;;0.63;0.43;;;20.40;95.60;;;;;;4983380;28;46313;-74
2022/10/16 01:48:25;;;;;;;0.43;0.30;;;20.40;96.00;;;;;;4983836;28;45370;-74
2022/10/16 01:50:56;;;;;;;0.38;0.28;;;20.40;95.60;;;;;;4983113;28;45569;-73
2022/10/16 01:53:24;;;;;;;0.20;0.20;;;20.40;95.60;;;;;;4982126;28;45515;-74
2022/10/16 01:55:53;;;;;;;0.55;0.30;;;20.40;95.50;;;;;;4983534;28;46297;-73
2022/10/16 01:58:20;;;;;;;0.45;0.32;;;20.40;95.50;;;;;;4982321;28;45272;-74
2022/10/16 02:00:49;;;;;;;0.73;0.30;;;20.40;95.50;;;;;;4983739;28;45453;-74
2022/10/16 02:03:19;;;;;;;0.55;0.30;;;20.40;95.50;;;;;;4968202;28;45459;-74
2022/10/16 02:05:48;;;;;;;0.30;0.28;;;20.40;95.50;;;;;;4977800;28;45318;-74
2022/10/16 02:08:15;;;;;;;0.65;0.32;;;20.40;95.50;;;;;;4974477;28;46296;-74
2022/10/16 02:10:42;;;;;;;0.30;0.20;;;20.40;95.40;;;;;;4983565;28;45418;-74
2022/10/16 02:13:12;;;;;;;0.98;0.30;;;20.40;95.40;;;;;;4984422;28;45367;-74
2022/10/16 02:15:39;;;;;;;0.20;0.20;;;20.40;95.40;;;;;;4983014;28;45495;-74
2022/10/16 02:18:09;;;;;;;0.45;0.30;;;20.40;95.40;;;;;;4973757;28;45295;-74
2022/10/16 02:20:43;;;;;;;0.80;0.38;;;20.40;95.40;;;;;;4982587;28;45387;-74
2022/10/16 02:23:15;;;;;;;0.30;0.30;;;20.40;95.40;;;;;;4983990;28;45284;-74
2022/10/16 02:25:45;;;;;;;0.32;0.30;;;20.40;95.30;;;;;;4983218;28;45403;-73
2022/10/16 02:28:17;;;;;;;0.30;0.30;;;20.40;95.30;;;;;;4983336;28;45352;-74
2022/10/16 02:30:48;;;;;;;0.77;0.30;;;20.40;95.40;;;;;;4978858;28;45468;-74
2022/10/16 02:33:18;;;;;;;0.32;0.30;;;20.40;95.30;;;;;;4985349;28;45507;-74
2022/10/16 02:35:48;;;;;;;0.40;0.32;;;20.40;95.30;;;;;;4976159;28;45393;-73
2022/10/16 02:38:16;;;;;;;0.73;0.45;;;20.40;95.30;;;;;;4977261;28;45681;-74
2022/10/16 02:40:43;;;;;;;1.02;0.50;;;20.40;95.30;;;;;;4985933;28;45517;-74
2022/10/16 02:43:11;;;;;;;0.30;0.30;;;20.40;95.40;;;;;;4987397;28;45312;-74
2022/10/16 02:45:38;;;;;;;0.38;0.30;;;20.40;95.30;;;;;;4983631;28;45376;-74
2022/10/16 02:48:05;;;;;;;1.05;0.47;;;20.40;95.30;;;;;;4975553;28;45356;-74
2022/10/16 02:50:33;;;;;;;0.25;0.25;;;20.40;95.30;;;;;;4978407;28;45417;-74
2022/10/16 02:53:00;;;;;;;0.30;0.20;;;20.40;95.20;;;;;;4983863;28;45561;-73
2022/10/16 02:55:27;;;;;;;0.20;0.20;;;20.40;95.20;;;;;;4985904;28;47673;-74
2022/10/16 02:57:54;;;;;;;0.28;0.20;;;20.40;95.10;;;;;;4970836;28;45314;-74
2022/10/16 03:00:21;;;;;;;0.20;0.20;;;20.40;95.10;;;;;;4985050;28;45292;-73
2022/10/16 03:02:54;;;;;;;0.20;0.20;;;20.40;95.10;;;;;;4981445;28;45496;-74
2022/10/16 03:05:21;;;;;;;0.43;0.20;;;20.40;95.10;;;;;;4986334;28;46890;-74
2022/10/16 03:07:49;;;;;;;0.45;0.20;;;20.40;95.00;;;;;;4986228;28;45923;-74
2022/10/16 03:10:16;;;;;;;0.25;0.20;;;20.40;95.00;;;;;;4986493;28;45396;-74
2022/10/16 03:12:42;;;;;;;0.15;0.10;;;20.40;94.90;;;;;;4982537;28;45523;-74
2022/10/16 03:15:10;;;;;;;1.98;0.30;;;20.40;94.90;;;;;;4967113;28;46608;-74
2022/10/16 03:17:37;;;;;;;0.70;0.40;;;20.40;94.90;;;;;;4971679;28;45351;-75
2022/10/16 03:20:04;;;;;;;0.20;0.20;;;20.40;94.90;;;;;;4985663;28;45375;-74
2022/10/16 03:22:31;;;;;;;0.40;0.30;;;20.40;94.80;;;;;;4982251;28;45137;-74
2022/10/16 03:24:59;;;;;;;0.20;0.20;;;20.40;94.90;;;;;;4982879;28;47224;-74
2022/10/16 03:27:26;;;;;;;0.50;0.30;;;20.40;94.80;;;;;;4983235;28;45330;-74
2022/10/16 03:29:53;;;;;;;0.20;0.20;;;20.40;94.80;;;;;;4986551;28;45336;-74
2022/10/16 03:32:21;;;;;;;0.20;0.20;;;20.40;94.80;;;;;;4977773;28;45597;-74
2022/10/16 03:34:48;;;;;;;0.10;0.10;;;20.40;94.80;;;;;;4977896;28;48270;-74
2022/10/16 03:37:14;;;;;;;0.38;0.28;;;20.40;94.80;;;;;;4985521;28;45406;-74
2022/10/16 03:39:41;;;;;;;0.35;0.30;;;20.40;94.90;;;;;;4984266;28;45347;-74
2022/10/16 03:42:09;;;;;;;0.35;0.30;;;20.40;94.90;;;;;;4981950;28;45366;-74
2022/10/16 03:44:36;;;;;;;0.47;0.40;;;20.40;94.90;;;;;;4981910;28;47471;-74
2022/10/16 03:47:03;;;;;;;0.20;0.20;;;20.40;94.90;;;;;;4986061;28;45635;-74
2022/10/16 03:49:29;;;;;;;0.25;0.20;;;20.40;94.80;;;;;;4980431;28;45366;-74
2022/10/16 03:52:03;;;;;;;0.30;0.30;;;20.40;94.70;;;;;;4986114;28;45434;-74
2022/10/16 03:54:30;;;;;;;0.20;0.20;;;20.40;94.70;;;;;;4974677;28;46443;-74
2022/10/16 03:56:57;;;;;;;0.38;0.22;;;20.40;94.70;;;;;;4973866;28;46248;-74
2022/10/16 03:59:25;;;;;;;0.52;0.30;;;20.40;94.70;;;;;;4985470;28;45546;-74
2022/10/16 04:01:51;;;;;;;0.20;0.20;;;20.40;94.70;;;;;;4971319;28;45269;-74
2022/10/16 04:04:18;;;;;;;0.95;0.30;;;20.40;94.60;;;;;;4985472;28;46731;-74
2022/10/16 04:06:45;;;;;;;0.50;0.30;;;20.40;94.50;;;;;;4971729;28;46254;-74
2022/10/16 04:09:12;;;;;;;1.33;0.30;;;20.40;94.40;;;;;;4984324;28;45267;-74
2022/10/16 04:11:38;;;;;;;0.13;0.10;;;20.40;94.40;;;;;;4977485;28;45222;-74
2022/10/16 04:14:05;;;;;;;0.10;0.10;;;20.40;94.40;;;;;;4983202;28;46422;-73
2022/10/16 04:16:35;;;;;;;0.43;0.20;;;20.40;94.40;;;;;;4973308;28;45642;-74
2022/10/16 04:19:01;;;;;;;0.30;0.30;;;20.40;94.30;;;;;;4970368;28;45454;-74
2022/10/16 04:21:28;;;;;;;0.52;0.20;;;20.40;94.30;;;;;;4965922;28;45552;-74
2022/10/16 04:23:55;;;;;;;0.17;0.17;;;20.40;94.20;;;;;;4977986;28;48207;-74
2022/10/16 04:26:23;;;;;;;0.13;0.13;;;20.40;94.40;;;;;;4991999;28;45325;-74
2022/10/16 04:28:49;;;;;;;0.32;0.20;;;20.40;94.40;;;;;;4999306;28;45338;-74
2022/10/16 04:31:16;;;;;;;0.20;0.20;;;20.40;94.50;;;;;;4984927;28;45551;-74
2022/10/16 04:33:45;;;;;;;0.55;0.20;;;20.40;94.40;;;;;;4985509;28;47340;-75
2022/10/16 04:36:11;;;;;;;0.25;0.25;;;20.40;94.50;;;;;;4985519;28;45415;-74
2022/10/16 04:38:39;;;;;;;0.50;0.25;;;20.40;94.40;;;;;;4985540;28;45298;-74
2022/10/16 04:41:06;;;;;;;0.15;0.15;;;20.40;94.40;;;;;;4986602;28;45407;-74
2022/10/16 04:43:33;;;;;;;0.20;0.20;;;20.40;94.40;;;;;;4985909;28;46322;-74
2022/10/16 04:46:01;;;;;;;0.20;0.20;;;20.40;94.40;;;;;;4987047;28;45349;-74
2022/10/16 04:48:28;;;;;;;0.47;0.17;;;20.40;94.20;;;;;;4985149;28;45224;-74
2022/10/16 04:50:56;;;;;;;0.10;0.10;;;20.40;94.20;;;;;;4975351;28;45533;-74
2022/10/16 04:53:23;;;;;;;0.20;0.17;;;20.40;94.20;;;;;;4968193;28;45253;-74
2022/10/16 04:55:50;;;;;;;0.20;0.20;;;20.40;94.20;;;;;;4991565;28;45346;-74
2022/10/16 04:58:17;;;;;;;0.30;0.20;;;20.40;94.20;;;;;;4986452;28;45442;-74
2022/10/16 05:00:46;;;;;;;0.10;0.10;;;20.40;94.20;;;;;;4984610;28;45372;-74
2022/10/16 05:03:13;;;;;;;0.10;0.10;;;20.40;94.20;;;;;;4983864;28;46365;-73
2022/10/16 05:05:44;;;;;;;0.38;0.32;;;20.40;94.20;;;;;;4989270;28;45186;-74
2022/10/16 05:08:13;;;;;;;0.55;0.20;;;20.40;94.20;;;;;;4984881;28;45346;-74
2022/10/16 05:10:39;;;;;;;1.10;0.32;;;20.40;94.20;;;;;;4984942;28;45512;-74
2022/10/16 05:13:06;;;;;;;0.57;0.17;;;20.40;94.20;;;;;;4984397;28;46568;-74
2022/10/16 05:15:33;;;;;;;0.57;0.20;;;20.40;94.20;;;;;;4984940;28;45349;-75
2022/10/16 05:18:00;;;;;;;0.30;0.22;;;20.40;94.20;;;;;;4982876;28;45370;-74
2022/10/16 05:20:26;;;;;;;0.22;0.20;;;20.40;94.20;;;;;;4970969;28;45494;-74
2022/10/16 05:22:53;;;;;;;0.22;0.10;;;20.40;94.20;;;;;;4984459;28;46574;-74
2022/10/16 05:25:21;;;;;;;0.47;0.17;;;20.40;94.20;;;;;;4984642;28;45405;-74
2022/10/16 05:27:53;;;;;;;0.28;0.28;;;20.40;94.20;;;;;;4984738;28;45288;-74
2022/10/16 05:30:20;;;;;;;0.10;0.10;;;20.40;94.20;;;;;;4975456;28;45709;-74
2022/10/16 05:32:48;;;;;;;0.20;0.20;;;20.40;94.20;;;;;;4978281;28;46652;-74
2022/10/16 05:35:15;;;;;;;0.30;0.30;;;20.40;94.20;;;;;;4982845;28;45308;-75
2022/10/16 05:37:42;;;;;;;0.20;0.20;;;20.40;94.20;;;;;;4986841;28;45252;-75
2022/10/16 05:40:09;;;;;;;0.68;0.30;;;20.40;94.20;;;;;;4978722;28;45422;-73
2022/10/16 05:42:38;;;;;;;0.25;0.25;;;20.40;94.20;;;;;;4984101;28;46323;-73
2022/10/16 05:45:06;;;;;;;0.73;0.38;;;20.40;94.20;;;;;;4984785;28;45274;-73
2022/10/16 05:47:32;;;;;;;0.65;0.20;;;20.40;94.10;;;;;;4983096;28;45291;-74
2022/10/16 05:49:59;;;;;;;0.38;0.25;;;20.40;94.00;;;;;;4983383;28;45454;-73
2022/10/16 05:52:29;;;;;;;0.13;0.13;;;20.40;94.10;;;;;;4968157;28;45410;-73
2022/10/16 05:54:56;;;;;;;0.20;0.20;;;20.40;94.00;;;;;;4980042;28;45396;-73
2022/10/16 05:57:22;;;;;;;0.20;0.20;;;20.40;94.00;;;;;;4975622;28;45239;-73
2022/10/16 05:59:50;;;;;;;0.40;0.28;;;20.40;94.00;;;;;;4982788;28;45538;-73
2022/10/16 06:02:17;;;;;;;0.52;0.20;;;20.40;94.00;;;;;;4977316;28;47506;-73
2022/10/16 06:04:44;;;;;;;0.73;0.28;;;20.30;93.80;;;;;;4985299;28;45281;-73
2022/10/16 06:07:11;;;;;;;0.38;0.30;;;20.40;93.90;;;;;;4983182;28;45208;-73
2022/10/16 06:09:37;;;;;;;0.20;0.20;;;20.40;93.70;;;;;;4978243;28;45669;-73
2022/10/16 06:12:04;;;;;;;0.17;0.13;;;20.40;93.60;;;;;;4983955;28;46527;-72
2022/10/16 06:14:31;;;;;;;0.25;0.25;;;20.40;93.60;;;;;;4983164;28;45439;-73
2022/10/16 06:16:59;;;;;;;2.13;0.30;;;20.40;93.50;;;;;;4987014;28;45386;-73
2022/10/16 06:19:26;;;;;;;0.20;0.20;;;20.40;93.50;;;;;;4983641;28;45506;-73
2022/10/16 06:21:53;;;;;;;0.20;0.20;;;20.40;93.50;;;;;;4985391;28;47379;-72
2022/10/16 06:24:20;;;;;;;0.55;0.30;;;20.40;93.50;;;;;;4992275;28;46631;-73
2022/10/16 06:26:47;;;;;;;0.30;0.20;;;20.40;93.50;;;;;;4985764;28;45347;-72
2022/10/16 06:29:13;;;;;;;0.40;0.20;;;20.40;93.40;;;;;;4987440;28;45264;-72
2022/10/16 06:31:40;;;;;;;5.22;0.20;;;20.40;93.30;;;;;;4976864;28;46587;-72
2022/10/16 06:34:11;;;;;;;0.88;0.40;;;20.40;93.30;;;;;;4983334;28;45236;-72
2022/10/16 06:36:38;;;;;;;0.35;0.30;;;20.40;93.30;;;;;;4975786;28;45793;-72
2022/10/16 06:39:07;;;;;;;0.20;0.20;;;20.40;93.20;;;;;;4985747;28;45339;-73
2022/10/16 06:41:34;;;;;;;0.40;0.25;;;20.40;93.30;;;;;;4977877;28;47268;-72
2022/10/16 06:44:02;;;;;;;0.15;0.10;;;20.40;93.30;;;;;;4983784;28;45378;-72
2022/10/16 06:46:29;;;;;;;0.55;0.30;;;20.40;93.20;;;;;;4978614;28;45333;-72
2022/10/16 06:48:56;;;;;;;0.30;0.20;;;20.40;93.20;;;;;;4990098;28;45403;-72
2022/10/16 06:51:25;;;;;;;0.90;0.40;;;20.40;93.20;;;;;;4984213;28;46410;-72
2022/10/16 06:53:54;;;;;;;0.10;0.10;;;20.40;93.10;;;;;;4981062;28;45418;-72
2022/10/16 06:56:23;;;;;;;0.30;0.30;;;20.40;93.10;;;;;;4984892;28;45244;-72
2022/10/16 06:58:50;;;;;;;0.52;0.30;;;20.40;93.10;;;;;;4984442;28;45486;-73
2022/10/16 07:01:19;;;;;;;0.68;0.20;;;20.40;93.10;;;;;;4983307;28;46380;-73
2022/10/16 07:03:46;;;;;;;1.38;0.30;;;20.40;93.10;;;;;;4981950;28;45379;-72
2022/10/16 07:06:15;;;;;;;0.23;0.23;;;20.40;93.10;;;;;;4979599;28;45358;-72
2022/10/16 07:08:45;;;;;;;2.47;0.45;;;20.40;93.00;;;;;;4983251;28;45409;-74
2022/10/16 07:11:13;;;;;;;1.60;0.30;;;20.40;92.70;;;;;;4987767;28;46257;-73
2022/10/16 07:13:43;;;;;;;0.85;0.32;;;20.40;92.90;;;;;;4988057;28;45327;-74
2022/10/16 07:16:11;;;;;;;0.20;0.20;;;20.40;92.90;;;;;;4986913;28;45303;-74
2022/10/16 07:18:40;;;;;;;0.30;0.10;;;20.40;92.90;;;;;;4988090;28;45170;-74
2022/10/16 07:21:08;;;;;;;4.68;0.30;;;20.40;92.90;;;;;;4987796;28;46571;-74
2022/10/16 07:23:35;;;;;;;0.93;0.20;;;20.40;92.80;;;;;;4987774;28;45205;-74
2022/10/16 07:26:04;;;;;;;0.75;0.20;;;20.40;92.80;;;;;;4988392;28;45268;-74
2022/10/16 07:28:31;;;;;;;0.52;0.30;;;20.40;92.80;;;;;;4988631;28;45487;-74
2022/10/16 07:31:02;;;;;;;0.60;0.30;;;20.50;92.80;;;;;;4988152;28;47559;-74
2022/10/16 07:33:29;;;;;;;0.20;0.20;;;20.50;92.70;;;;;;4987919;28;45428;-73
2022/10/16 07:35:56;;;;;;;0.40;0.38;;;20.50;92.70;;;;;;4972279;28;45305;-74
2022/10/16 07:38:23;;;;;;;0.30;0.30;;;20.50;92.60;;;;;;4969008;28;45239;-74
2022/10/16 07:40:58;;;;;;;0.52;0.30;;;20.50;92.60;;;;;;4974879;28;45292;-74
2022/10/16 07:43:26;;;;;;;1.10;0.50;;;20.50;92.50;;;;;;4987397;28;45408;-74
2022/10/16 07:45:54;;;;;;;0.35;0.32;;;20.50;92.40;;;;;;4988006;28;45117;-74
2022/10/16 07:48:22;;;;;;;1.85;0.30;;;20.50;92.30;;;;;;4987358;28;45417;-74
2022/10/16 07:50:57;;;;;;;0.20;0.20;;;20.50;92.10;;;;;;4987594;28;46607;-74
2022/10/16 07:53:24;;;;;;;0.57;0.20;;;20.60;91.90;;;;;;4987668;28;45274;-74
2022/10/16 07:55:51;;;;;;;0.25;0.15;;;20.60;91.80;;;;;;4987787;28;45235;-74
2022/10/16 07:58:18;;;;;;;0.22;0.22;;;20.60;91.80;;;;;;4987531;28;45362;-74
2022/10/16 08:00:46;;;;;;;0.98;0.25;;;20.60;91.70;;;;;;4981100;28;45458;-70
2022/10/16 08:03:13;;;;;;;4.60;0.30;;;20.60;91.60;;;;;;4985771;28;45405;-74
2022/10/16 08:05:39;;;;;;;0.30;0.20;;;20.60;91.80;;;;;;4987445;28;45361;-74
2022/10/16 08:08:06;;;;;;;0.93;0.30;;;20.60;91.80;;;;;;4987515;28;45074;-74
2022/10/16 08:10:33;;;;;;;0.35;0.20;;;20.60;91.80;;;;;;4987461;28;46718;-74
2022/10/16 08:13:00;;;;;;;0.43;0.20;;;20.60;91.80;;;;;;4989568;28;45188;-74
2022/10/16 08:15:26;;;;;;;0.43;0.30;;;20.60;91.70;;;;;;4987604;28;45327;-75
2022/10/16 08:17:59;;;;;;;0.32;0.32;;;20.60;91.70;;;;;;4987065;28;45340;-74
2022/10/16 08:20:27;;;;;;;0.52;0.30;;;20.60;91.80;;;;;;4986654;28;47821;-73
2022/10/16 08:22:54;;;;;;;0.35;0.30;;;20.60;91.80;;;;;;4982006;28;45374;-74
2022/10/16 08:25:21;;;;;;;0.38;0.30;;;20.60;91.90;;;;;;4967653;28;45224;-74
2022/10/16 08:27:48;;;;;;;2.05;0.40;;;20.60;91.90;;;;;;4966696;28;45416;-74
2022/10/16 08:30:52;;;;;;;0.30;0.20;;;20.60;91.90;;;;;;4968072;28;47354;-74
2022/10/16 08:33:21;;;;;;;0.22;0.17;;;20.60;91.90;;;;;;4969393;28;45348;-73
2022/10/16 08:35:53;;;;;;;0.60;0.30;;;20.60;91.80;;;;;;4968864;28;45396;-73
2022/10/16 08:38:20;;;;;;;0.75;0.30;;;20.60;91.80;;;;;;4968031;28;45135;-74
2022/10/16 08:40:47;;;;;;;1.20;0.40;;;20.60;91.80;;;;;;4980359;28;45268;-73
2022/10/16 08:43:35;;;;;;;0.57;0.30;;;20.70;91.80;;;;;;4986809;28;45261;-74
2022/10/16 08:46:21;;;;;;;0.50;0.20;;;20.70;91.80;;;;;;4986396;28;45301;-74
2022/10/16 08:48:52;;;;;;;1.10;0.40;;;20.70;91.80;;;;;;4987291;28;45358;-73
2022/10/16 08:51:23;;;;;;;1.10;0.37;;;20.70;91.80;;;;;;4985965;28;47183;-74
2022/10/16 08:53:54;;;;;;;0.45;0.30;;;20.70;91.80;;;;;;4986040;28;45213;-74
2022/10/16 08:56:22;;;;;;;1.20;0.40;;;20.80;91.80;;;;;;4983960;28;45287;-74
2022/10/16 08:58:49;;;;;;;1.27;0.40;;;20.80;91.80;;;;;;4985020;28;45229;-74
2022/10/16 09:01:18;;;;;;;0.40;0.30;;;20.80;91.80;;;;;;4976998;28;46254;-74
2022/10/16 09:04:31;;;;;;;0.20;0.20;;;20.80;91.90;;;;;;4987136;28;45244;-73
2022/10/16 09:07:05;;;;;;;0.77;0.40;;;20.80;91.90;;;;;;4944247;28;45394;-74
2022/10/16 09:09:44;;;;;;;0.70;0.30;;;20.80;91.90;;;;;;4984874;28;45491;-74
2022/10/16 09:12:15;;;;;;;0.60;0.28;;;20.80;92.00;;;;;;4985556;28;47845;-74
2022/10/16 09:14:51;;;;;;;1.05;0.30;;;20.80;92.10;;;;;;4984554;28;45339;-74
2022/10/16 09:17:41;;;;;;;0.95;0.35;;;20.80;92.10;;;;;;4984117;28;45524;-74
2022/10/16 09:20:30;;;;;;;0.70;0.30;;;20.80;92.20;;;;;;4974025;28;45205;-74
2022/10/16 09:23:19;;;;;;;0.43;0.20;;;20.80;92.20;;;;;;4967006;28;46156;-74
2022/10/16 09:25:48;;;;;;;0.95;0.32;;;20.70;92.20;;;;;;4985821;28;45215;-74
2022/10/16 09:28:16;;;;;;;0.75;0.30;;;20.70;92.30;;;;;;4985838;28;45348;-74
2022/10/16 09:30:43;;;;;;;0.65;0.30;;;20.70;92.30;;;;;;4986029;28;45489;-74
2022/10/16 09:33:11;;;;;;;0.50;0.30;;;20.70;92.30;;;;;;4985175;28;45391;-74
2022/10/16 09:35:40;;;;;;;2.45;0.30;;;20.70;92.20;;;;;;4983117;28;45667;-74
2022/10/16 09:38:08;;;;;;;0.85;0.30;;;20.70;92.10;;;;;;4985244;28;45265;-74
2022/10/16 09:40:38;;;;;;;0.75;0.40;;;20.70;92.10;;;;;;4986286;28;45308;-74
2022/10/16 09:43:30;;;;;;;0.35;0.20;;;20.70;92.10;;;;;;4985360;28;47039;-74
2022/10/16 09:46:02;;;;;;;0.38;0.20;;;20.70;92.10;;;;;;4985130;28;45252;-74
2022/10/16 09:48:34;;;;;;;0.60;0.20;;;20.70;92.10;;;;;;4985117;28;45281;-74
2022/10/16 09:51:03;;;;;;;1.30;0.30;;;20.70;92.10;;;;;;4987885;28;45418;-75
2022/10/16 09:53:40;;;;;;;0.43;0.25;;;20.70;92.10;;;;;;5005142;28;48074;-74
2022/10/16 09:56:13;;;;;;;0.57;0.30;;;20.70;92.10;;;;;;5007056;28;45930;-74
2022/10/16 09:58:43;;;;;;;0.70;0.20;;;20.70;92.00;;;;;;5005615;28;45316;-74
2022/10/16 10:01:14;;;;;;;0.20;0.10;;;20.70;92.00;;;;;;5005684;28;45357;-74
2022/10/16 10:03:43;;;;;;;0.30;0.28;;;20.70;92.00;;;;;;5005186;28;47979;-74
2022/10/16 10:06:19;;;;;;;0.90;0.30;;;20.70;92.00;;;;;;5004849;28;45217;-74
2022/10/16 10:09:00;;;;;;;2.40;0.30;;;20.70;91.90;;;;;;5005288;28;45231;-74
2022/10/16 10:11:54;;;;;;;2.28;0.30;;;20.70;92.00;;;;;;5005442;28;45437;-74
2022/10/16 10:14:24;;;;;;;1.48;0.40;;;20.70;91.90;;;;;;4990946;28;46889;-74
2022/10/16 10:16:52;;;;;;;0.20;0.20;;;20.70;91.90;;;;;;5005326;28;45404;-74
2022/10/16 10:19:20;;;;;;;1.13;0.38;;;20.70;91.90;;;;;;5005489;28;45265;-74
2022/10/16 10:21:48;;;;;;;1.00;0.40;;;20.70;91.90;;;;;;5004803;28;45317;-74
2022/10/16 10:24:16;;;;;;;0.43;0.40;;;20.70;91.90;;;;;;5005371;28;47050;-75
2022/10/16 10:26:56;;;;;;;0.90;0.25;;;20.70;91.90;;;;;;5005115;28;45279;-74
2022/10/16 10:29:37;;;;;;;0.28;0.20;;;20.70;91.90;;;;;;5005440;28;45278;-74
2022/10/16 10:32:19;;;;;;;0.60;0.20;;;20.70;91.90;;;;;;5005311;28;45362;-75
2022/10/16 10:35:05;;;;;;;0.45;0.20;;;20.70;91.90;;;;;;5005352;28;46153;-75
2022/10/16 10:37:45;;;;;;;0.30;0.17;;;20.70;91.80;;;;;;5004945;28;45307;-74
2022/10/16 10:40:24;;;;;;;0.50;0.28;;;20.70;91.80;;;;;;5005307;28;45264;-74
2022/10/16 10:43:00;;;;;;;1.67;0.40;;;20.60;91.70;;;;;;5005312;28;45419;-74
2022/10/16 10:45:29;;;;;;;0.47;0.20;;;20.70;91.70;;;;;;5005193;28;47138;-74
2022/10/16 10:48:13;;;;;;;0.15;0.15;;;20.60;91.70;;;;;;5007017;28;45181;-74
2022/10/16 10:50:46;;;;;;;0.30;0.20;;;20.60;91.80;;;;;;5007000;28;45192;-74
2022/10/16 10:53:25;;;;;;;0.90;0.20;;;20.60;91.80;;;;;;5008537;28;45429;-74
2022/10/16 10:55:59;;;;;;;0.35;0.20;;;20.60;91.80;;;;;;5008398;28;45178;-74
2022/10/16 10:58:45;;;;;;;1.05;0.30;;;20.60;91.90;;;;;;5008251;28;45232;-74
2022/10/16 11:01:15;;;;;;;0.20;0.20;;;20.60;91.80;;;;;;5008400;28;45290;-74
2022/10/16 11:04:02;;;;;;;1.00;0.25;;;20.60;91.80;;;;;;5008103;28;45443;-74
2022/10/16 11:06:33;;;;;;;0.28;0.28;;;20.60;91.80;;;;;;5008346;28;45497;-74
2022/10/16 11:09:07;;;;;;;0.38;0.20;;;20.60;91.80;;;;;;5008080;28;45145;-74
2022/10/16 11:11:41;;;;;;;0.28;0.13;;;20.60;91.80;;;;;;5008208;28;45176;-74
2022/10/16 11:14:17;;;;;;;0.60;0.15;;;20.60;91.70;;;;;;5007963;28;45601;-74
2022/10/16 11:16:50;;;;;;;0.08;0.03;;;20.60;91.60;;;;;;5008377;28;47045;-74
2022/10/16 11:19:29;;;;;;;0.30;0.20;;;20.60;91.60;;;;;;5008096;28;45134;-74
2022/10/16 11:22:02;;;;;;;0.80;0.30;;;20.60;91.60;;;;;;5007857;28;45283;-74
2022/10/16 11:24:40;;;;;;;0.30;0.30;;;20.60;91.60;;;;;;5008569;28;45136;-74
2022/10/16 11:27:12;;;;;;;0.20;0.20;;;20.60;91.60;;;;;;5004820;28;46066;-74
2022/10/16 11:29:47;;;;;;;0.60;0.20;;;20.60;91.50;;;;;;5008011;28;45235;-74
2022/10/16 11:32:22;;;;;;;0.73;0.20;;;20.60;91.50;;;;;;4990759;28;45232;-75
2022/10/16 11:34:52;;;;;;;0.47;0.20;;;20.60;91.50;;;;;;4988195;28;45475;-74
2022/10/16 11:37:22;;;;;;;0.20;0.17;;;20.60;91.40;;;;;;4988493;28;45393;-74
2022/10/16 11:39:53;;;;;;;0.20;0.15;;;20.60;91.40;;;;;;4990079;28;45106;-75
2022/10/16 11:42:24;;;;;;;0.65;0.20;;;20.60;91.50;;;;;;4988211;28;45296;-74
2022/10/16 11:44:58;;;;;;;0.40;0.30;;;20.60;91.60;;;;;;4988522;28;45272;-74
2022/10/16 11:47:31;;;;;;;0.43;0.10;;;20.60;91.60;;;;;;4987709;28;46572;-75
2022/10/16 11:50:01;;;;;;;0.38;0.20;;;20.60;91.60;;;;;;4987839;28;45251;-75
2022/10/16 11:52:37;;;;;;;0.30;0.20;;;20.60;91.60;;;;;;4987978;28;45252;-75
2022/10/16 11:55:14;;;;;;;0.70;0.17;;;20.60;91.60;;;;;;4988076;28;45574;-74
2022/10/16 11:57:45;;;;;;;0.60;0.20;;;20.60;92.00;;;;;;4987578;28;46400;-74
2022/10/16 12:00:22;;;;;;;0.43;0.22;;;20.60;91.50;;;;;;4987969;28;45189;-75
2022/10/16 12:02:57;;;;;;;0.52;0.25;;;20.60;91.50;;;;;;4987628;28;45368;-75
2022/10/16 12:05:32;;;;;;;1.20;0.35;;;20.60;91.40;;;;;;4987774;28;45433;-74
2022/10/16 12:08:09;;;;;;;0.70;0.30;;;20.60;91.40;;;;;;4987546;28;47915;-74
2022/10/16 12:10:37;;;;;;;0.52;0.20;;;20.60;91.40;;;;;;4987630;28;45233;-75
2022/10/16 12:13:04;;;;;;;0.10;0.10;;;20.60;91.30;;;;;;4988093;28;45279;-74
2022/10/16 12:15:34;;;;;;;0.43;0.20;;;20.60;91.30;;;;;;4987790;28;45076;-74
2022/10/16 12:18:01;;;;;;;0.35;0.20;;;20.60;91.20;;;;;;4986388;28;46463;-74
2022/10/16 12:20:32;;;;;;;0.28;0.20;;;20.60;91.20;;;;;;4986130;28;45263;-73
2022/10/16 12:23:02;;;;;;;0.30;0.20;;;20.60;91.10;;;;;;4986152;28;45458;-74
2022/10/16 12:25:31;;;;;;;0.30;0.20;;;20.70;91.10;;;;;;4986219;28;45394;-74
2022/10/16 12:28:03;;;;;;;0.10;0.08;;;20.60;91.10;;;;;;4986420;28;47919;-74
2022/10/16 12:30:34;;;;;;;0.20;0.20;;;20.70;91.10;;;;;;4988501;28;45403;-74
2022/10/16 12:33:04;;;;;;;0.65;0.28;;;20.70;91.10;;;;;;4987462;28;45413;-74
2022/10/16 12:35:34;;;;;;;0.30;0.30;;;20.70;91.10;;;;;;4987127;28;45240;-74
2022/10/16 12:38:14;;;;;;;0.85;0.30;;;20.70;91.10;;;;;;4987041;28;46608;-74
2022/10/16 12:40:42;;;;;;;0.10;0.00;;;20.70;91.10;;;;;;4987212;28;45240;-74
2022/10/16 12:43:24;;;;;;;0.30;0.13;;;20.70;91.20;;;;;;4987163;28;45319;-74
2022/10/16 12:46:02;;;;;;;0.10;0.10;;;20.70;91.20;;;;;;4984373;28;45268;-74
2022/10/16 12:48:29;;;;;;;0.30;0.13;;;20.70;91.20;;;;;;4986976;28;46667;-75
2022/10/16 12:50:56;;;;;;;0.20;0.20;;;20.70;91.20;;;;;;4987289;28;45310;-74
2022/10/16 12:53:25;;;;;;;0.38;0.30;;;20.70;91.20;;;;;;4986910;28;45170;-74
2022/10/16 12:56:03;;;;;;;0.10;0.08;;;20.70;91.20;;;;;;4987309;28;45218;-75
2022/10/16 12:59:00;;;;;;;0.20;0.10;;;20.70;91.20;;;;;;4986987;28;47420;-75
2022/10/16 13:01:38;;;;;;;0.30;0.10;;;20.70;91.20;;;;;;4986777;28;46007;-74
2022/10/16 13:04:18;;;;;;;0.77;0.30;;;20.70;91.20;;;;;;4986687;28;45130;-75